Lambourn, United Kingdom
Current Conditions -  °F | °C
As of 11:58 PM on Thursday 18 Dec 2014 (Local Time) from EGVA Reporting Station
Light Rain Light Rain  
Wind Chill: 53°   Ceiling: 600
Heat Index: 53°   Visibility: 4mi
Dew Point: 53°   Wind: 20mph
Humidity: 99%   Direction: 230°SW
Pressure: 29.78"   Gusts: 28mph
Location:  51.51°N, 1.53°W
Report Text: EGVA 182358Z AUTO 23017G24KT 6000 R27/1400 -RA BR OVC006 12/11 A2978 RMK AO2 SLP088 P0000 60000 T01150114 10120 20114 401250114 58002
Loading
Personal Weather Stations






























Interactive Weather Map New forecast layout! Learn more

10-Day Weather Forecast

Advertisements
Track Severe Weather on mobile